首页
METAR-TAF:

METAR-TAF

机场 :

Tofino, 不列颠哥伦比亚, 加拿大

纬度: 49-05N, 经度: 125-46W, 海拔: 24米

当前天气观测

该预报发布于22分钟前的22:00 UTC
风速8节,风向东南
温度 13°C
湿度 100%
气压 1013 hPa
能見度: 3.2公里
阴天层高于600英尺
轻雾

METAR: CYAZ 222200Z 14008KT 2SM BR OVC006 13/13 A2992 RMK FG2ST6 SLP135

时间: 15:22 (22:22 UTC)

预报

该预报发布于3小时和42分钟前的18:40 UTC
预报有效从22日的 19点(UTC)到 23日的 01点(UTC)
风速8节,风向南转南东
能見度: 2.4公里
阴天层高于500英尺
小阵雨, 轻雾
短暂存在
从 22日的 19点(UTC)到 22日的 21点(UTC)
能見度: 1.6公里
散云层高于500英尺
阴天层高于1500英尺
小雨, 轻雾
从 22日的 2100点(UTC)
风速10节,风向东南
能見度: 1.6公里
阴天层高于600英尺
小雨, 轻雾
短暂存在
从 22日的 21点(UTC)到 23日的 01点(UTC)
能見度: 10公里
散云层高于600英尺
多云层高于1500英尺
阴天层高于2500英尺
小雨

TAF: CYAZ 221840Z 2219/2301 15008KT 1 1/2SM -SHRA BR OVC005 TEMPO 2219/2221 4SM -RA BR SCT005 OVC015 FM222100 13010KT 2SM -RA BR OVC006 TEMPO 2221/2301 P6SM -RA SCT006 BKN015 OVC025 RMK NXT FCST BY 231500Z

超过4000个机场的气象观测和天气预报(METAR&TAF报告)。

可查询的气象台以黄色和红色小点在地图上表示。

将鼠标移到小点上方,可查看气象台名称。

然后点击查看天气观测和预报。

如需切换地图:点击带黑十字的绿色按钮放大地图;点击带横线的绿色按钮缩小地图;或者点击绿色箭头查看邻近地区的地图。


METAR-TAF: